Terminal Aerodrome Forecast
Issued by NWS

Home | Current Version | Previous Version | Graphics & Text | Print | Product List | Glossary On
Versions: 1 2 3 4 5 6 7 8 9 10 11 12 13 14
000
FTUS43 KMPX 232328
TAFAXN
TAF
KAXN 232328Z 2400/2424 VRB03KT P6SM SCT150
     FM240300 VRB03KT P6SM BKN090
     FM240700 03007KT P6SM BKN090
     FM241100 03014G20KT P6SM OVC060
     FM242000 35014G20KT P6SM SCT110=

USA.gov is the U.S. government's official web portal to all federal, state and local government web resources and services.